createdAt,value
2022-08-14T00:01:10.231Z,1.60
2022-08-14T00:03:40.785Z,1.45
2022-08-14T00:06:25.435Z,1.65
2022-08-14T00:08:59.164Z,1.48
2022-08-14T00:11:28.853Z,1.15
2022-08-14T00:14:01.464Z,1.38
2022-08-14T00:16:40.391Z,1.30
2022-08-14T00:19:21.152Z,1.40
2022-08-14T00:21:49.929Z,1.30
2022-08-14T00:24:22.840Z,1.40
2022-08-14T00:26:49.664Z,1.40
2022-08-14T00:29:21.495Z,1.27
2022-08-14T00:31:53.817Z,1.30
2022-08-14T00:34:37.951Z,1.58
2022-08-14T00:37:09.903Z,1.45
2022-08-14T00:39:37.308Z,1.27
2022-08-14T00:42:04.891Z,1.50
2022-08-14T00:44:33.284Z,1.50
2022-08-14T00:47:06.128Z,1.40
2022-08-14T00:49:42.556Z,1.40
2022-08-14T00:52:17.818Z,1.33
2022-08-14T00:54:46.631Z,1.50
2022-08-14T00:57:13.626Z,1.52
2022-08-14T00:59:41.351Z,1.40
2022-08-14T01:02:09.514Z,1.45
2022-08-14T01:04:51.648Z,1.40
2022-08-14T01:07:22.695Z,1.52
2022-08-14T01:09:54.728Z,1.30
2022-08-14T01:12:27.300Z,1.60
2022-08-14T01:15:02.249Z,1.40
2022-08-14T01:17:50.648Z,1.42
2022-08-14T01:20:41.032Z,1.48
2022-08-14T01:23:10.379Z,1.45
2022-08-14T01:25:44.135Z,1.58
2022-08-14T01:28:46.230Z,1.38
2022-08-14T01:31:00.263Z,1.20
2022-08-14T01:33:30.156Z,1.30
2022-08-14T01:36:05.089Z,1.45
2022-08-14T01:38:37.087Z,1.25
2022-08-14T01:41:14.988Z,1.42
2022-08-14T01:44:02.308Z,1.42
2022-08-14T01:46:33.494Z,1.50
2022-08-14T01:49:05.832Z,1.70
2022-08-14T01:51:34.972Z,1.48
2022-08-14T01:54:09.636Z,1.52
2022-08-14T01:56:40.949Z,1.50
2022-08-14T01:59:18.602Z,1.20
2022-08-14T02:01:58.339Z,1.40
2022-08-14T02:04:54.884Z,1.52
2022-08-14T02:07:15.539Z,1.33
2022-08-14T02:09:42.847Z,1.50
2022-08-14T02:12:09.766Z,1.83
2022-08-14T02:14:59.024Z,1.60
2022-08-14T02:17:27.688Z,1.40
2022-08-14T02:19:54.255Z,1.63
2022-08-14T02:22:29.242Z,1.58
2022-08-14T02:24:59.664Z,1.60
2022-08-14T02:28:23.174Z,1.65
2022-08-14T02:30:13.787Z,1.50
2022-08-14T02:32:40.445Z,1.60
2022-08-14T02:35:13.742Z,1.80
2022-08-14T02:40:16.572Z,1.60
2022-08-14T02:42:55.243Z,1.60
2022-08-14T02:45:37.872Z,1.67
2022-08-14T02:48:10.242Z,1.73
2022-08-14T02:50:56.875Z,1.80
2022-08-14T02:53:27.227Z,1.70
2022-08-14T02:55:56.383Z,1.55
2022-08-14T02:58:31.147Z,1.90
2022-08-14T03:00:59.270Z,1.80
2022-08-14T03:03:26.508Z,1.70
2022-08-14T03:05:54.355Z,1.60
2022-08-14T03:08:22.298Z,1.65
2022-08-14T03:10:50.195Z,1.90
2022-08-14T03:13:19.507Z,1.70
2022-08-14T03:15:55.774Z,1.70
2022-08-14T03:18:31.166Z,1.70
2022-08-14T03:21:05.054Z,1.83
2022-08-14T03:23:37.645Z,1.90
2022-08-14T03:26:13.040Z,1.95
2022-08-14T03:28:47.495Z,2.00
2022-08-14T03:31:15.072Z,2.00
2022-08-14T03:33:43.101Z,2.13
2022-08-14T03:37:50.798Z,2.15
2022-08-14T03:39:21.313Z,1.85
2022-08-14T03:41:48.851Z,1.80
2022-08-14T03:45:26.319Z,2.20
2022-08-14T03:47:03.047Z,2.05
2022-08-14T03:49:30.135Z,1.95
2022-08-14T03:52:00.554Z,1.80
2022-08-14T03:54:28.265Z,2.13
2022-08-14T03:56:55.084Z,2.08
2022-08-14T03:59:21.817Z,1.98
2022-08-14T04:02:01.333Z,1.95
2022-08-14T04:04:32.281Z,2.35
2022-08-14T04:07:00.806Z,2.17
2022-08-14T04:09:28.483Z,1.90
2022-08-14T04:11:56.190Z,2.38
2022-08-14T04:14:24.921Z,2.40
2022-08-14T04:16:51.516Z,1.80
2022-08-14T04:19:19.399Z,2.20
2022-08-14T04:22:02.302Z,2.10
2022-08-14T04:24:39.042Z,2.10
2022-08-14T04:27:13.333Z,2.28
2022-08-14T04:29:45.095Z,2.40
2022-08-14T04:33:02.346Z,2.58
2022-08-14T04:34:59.201Z,2.22
2022-08-14T04:37:45.573Z,2.53
2022-08-14T04:40:31.668Z,2.10
2022-08-14T04:43:17.642Z,2.40
2022-08-14T04:45:44.902Z,2.22
2022-08-14T04:48:13.821Z,2.20
2022-08-14T04:51:00.755Z,2.30
2022-08-14T04:53:35.613Z,2.13
2022-08-14T04:56:06.181Z,2.08
2022-08-14T04:58:37.651Z,2.05
2022-08-14T05:01:12.845Z,2.20
2022-08-14T05:03:46.462Z,2.42
2022-08-14T05:06:37.871Z,2.00
2022-08-14T05:09:00.584Z,2.63
2022-08-14T05:11:27.725Z,2.35
2022-08-14T05:14:16.972Z,2.03
2022-08-14T05:16:43.649Z,2.13
2022-08-14T05:19:18.400Z,2.22
2022-08-14T05:22:15.692Z,2.22
2022-08-14T05:24:44.398Z,2.10
2022-08-14T05:27:10.972Z,2.20
2022-08-14T05:29:37.609Z,2.25
2022-08-14T05:32:07.571Z,2.50
2022-08-14T05:34:34.239Z,2.20
2022-08-14T05:37:02.911Z,2.35
2022-08-14T05:39:31.397Z,2.22
2022-08-14T05:41:59.016Z,2.25
2022-08-14T05:44:30.295Z,2.17
2022-08-14T05:46:58.622Z,2.20
2022-08-14T05:49:33.011Z,2.17
2022-08-14T05:52:02.175Z,2.50
2022-08-14T05:54:35.351Z,2.20
2022-08-14T05:57:04.440Z,2.00
2022-08-14T05:59:39.119Z,2.00
2022-08-14T06:02:10.377Z,2.38
2022-08-14T06:04:38.581Z,2.20
2022-08-14T06:07:05.738Z,2.13
2022-08-14T06:09:35.755Z,2.30
2022-08-14T06:12:08.435Z,2.30
2022-08-14T06:14:35.528Z,2.50
2022-08-14T06:17:03.710Z,2.40
2022-08-14T06:19:30.432Z,2.33
2022-08-14T06:21:58.480Z,2.40
2022-08-14T06:24:27.196Z,2.33
2022-08-14T06:27:03.854Z,2.45
2022-08-14T06:29:33.572Z,2.30
2022-08-14T06:32:36.713Z,2.53
2022-08-14T06:35:04.126Z,2.60
2022-08-14T06:37:43.375Z,2.50
2022-08-14T06:40:25.703Z,2.20
2022-08-14T06:43:00.562Z,2.40
2022-08-14T06:45:31.210Z,2.25
2022-08-14T06:47:58.814Z,3.45
2022-08-14T06:50:28.734Z,4.40
2022-08-14T06:52:56.802Z,4.28
2022-08-14T06:55:27.766Z,4.28
2022-08-14T06:57:54.614Z,4.22
2022-08-14T07:00:27.001Z,4.10
2022-08-14T07:03:12.335Z,4.13
2022-08-14T07:05:55.848Z,4.30
2022-08-14T07:08:29.826Z,4.05
2022-08-14T07:11:01.119Z,3.70
2022-08-14T07:13:28.474Z,4.43
2022-08-14T07:15:58.548Z,4.05
2022-08-14T07:18:30.686Z,4.18
2022-08-14T07:20:58.916Z,4.60
2022-08-14T07:23:26.412Z,4.07
2022-08-14T07:25:55.267Z,4.00
2022-08-14T07:28:28.683Z,4.20
2022-08-14T07:31:04.301Z,4.18
2022-08-14T07:33:50.497Z,4.00
2022-08-14T07:36:27.021Z,4.07
2022-08-14T07:39:00.624Z,4.13
2022-08-14T07:41:34.194Z,4.35
2022-08-14T07:44:29.687Z,4.20
2022-08-14T07:46:50.148Z,4.30
2022-08-14T07:49:18.190Z,4.30
2022-08-14T07:51:45.501Z,4.45
2022-08-14T07:54:12.419Z,4.15
2022-08-14T07:56:47.368Z,4.75
2022-08-14T07:59:18.272Z,4.50
2022-08-14T08:01:48.123Z,4.28
2022-08-14T08:04:25.223Z,4.32
2022-08-14T08:06:53.815Z,4.45
2022-08-14T08:09:32.106Z,4.72
2022-08-14T08:12:04.779Z,4.43
2022-08-14T08:14:55.437Z,4.10
2022-08-14T08:17:23.408Z,4.45
2022-08-14T08:19:51.620Z,4.55
2022-08-14T08:22:21.323Z,4.05
2022-08-14T08:24:50.576Z,4.07
2022-08-14T08:27:19.822Z,4.03
2022-08-14T08:29:50.966Z,4.45
2022-08-14T08:32:17.981Z,4.20
2022-08-14T08:34:46.490Z,4.28
2022-08-14T08:37:13.872Z,4.50
2022-08-14T08:40:02.007Z,4.00
2022-08-14T08:42:38.864Z,3.83
2022-08-14T08:45:12.209Z,4.47
2022-08-14T08:47:43.150Z,3.88
2022-08-14T08:53:00.385Z,4.30
2022-08-14T08:55:31.892Z,4.40
2022-08-14T08:58:12.439Z,4.20
2022-08-14T09:00:47.200Z,4.43
2022-08-14T09:03:20.294Z,4.33
2022-08-14T09:05:57.718Z,4.50
2022-08-14T09:08:31.453Z,4.70
2022-08-14T09:11:19.443Z,4.35
2022-08-14T09:13:50.380Z,4.32
2022-08-14T09:16:20.727Z,4.18
2022-08-14T09:18:48.616Z,4.22
2022-08-14T09:21:16.156Z,4.30
2022-08-14T09:24:26.799Z,4.75
2022-08-14T09:26:30.012Z,4.55
2022-08-14T09:28:59.149Z,4.20
2022-08-14T09:31:27.378Z,4.25
2022-08-14T09:34:58.153Z,4.22
2022-08-14T09:37:49.024Z,4.28
2022-08-14T09:40:34.260Z,4.60
2022-08-14T09:43:26.416Z,4.15
2022-08-14T09:45:57.375Z,4.40
2022-08-14T09:48:29.905Z,4.53
2022-08-14T09:50:58.087Z,4.20
2022-08-14T09:53:43.033Z,4.00
2022-08-14T09:56:30.734Z,4.10
2022-08-14T09:58:59.843Z,4.38
2022-08-14T10:01:36.234Z,4.00
2022-08-14T10:04:07.000Z,4.30
2022-08-14T10:06:52.194Z,4.00
2022-08-14T10:09:19.039Z,4.43
2022-08-14T10:11:58.971Z,4.47
2022-08-14T10:14:35.995Z,4.55
2022-08-14T10:17:08.473Z,4.10
2022-08-14T10:19:36.564Z,4.35
2022-08-14T10:23:12.950Z,4.20
2022-08-14T10:24:57.233Z,4.05
2022-08-14T10:27:27.193Z,4.25
2022-08-14T10:29:58.979Z,4.25
2022-08-14T10:32:36.146Z,4.15
2022-08-14T10:35:14.180Z,4.03
2022-08-14T10:37:52.232Z,4.20
2022-08-14T10:40:38.856Z,4.30
2022-08-14T10:43:31.900Z,4.40
2022-08-14T10:46:21.947Z,4.28
2022-08-14T10:49:02.689Z,4.40
2022-08-14T10:51:34.178Z,4.35
2022-08-14T10:54:25.922Z,4.55
2022-08-14T10:57:18.603Z,5.05
2022-08-14T10:59:52.388Z,5.05
2022-08-14T11:02:44.761Z,4.53
2022-08-14T11:05:18.188Z,4.85
2022-08-14T11:07:56.266Z,4.60
2022-08-14T11:10:27.856Z,4.82
2022-08-14T11:12:57.753Z,4.38
2022-08-14T11:15:27.386Z,4.10
2022-08-14T11:17:56.441Z,4.50
2022-08-14T11:20:30.050Z,4.53
2022-08-14T11:23:00.720Z,4.90
2022-08-14T11:25:36.749Z,4.35
2022-08-14T11:28:14.646Z,4.35
2022-08-14T11:30:53.472Z,5.07
2022-08-14T11:33:25.255Z,4.70
2022-08-14T11:35:51.862Z,4.65
2022-08-14T11:38:21.697Z,4.30
2022-08-14T11:40:48.980Z,4.68
2022-08-14T11:43:16.383Z,4.40
2022-08-14T11:45:48.039Z,4.53
2022-08-14T11:49:04.048Z,4.68
2022-08-14T11:51:23.933Z,4.93
2022-08-14T11:56:18.710Z,5.03
2022-08-14T11:58:53.576Z,4.90
2022-08-14T12:01:31.297Z,4.80
2022-08-14T12:04:32.227Z,5.15
2022-08-14T12:07:01.202Z,4.95
2022-08-14T12:09:36.256Z,4.60
2022-08-14T12:12:14.219Z,5.13
2022-08-14T12:15:01.149Z,5.18
2022-08-14T12:17:29.855Z,4.68
2022-08-14T12:20:06.854Z,5.13
2022-08-14T12:22:37.138Z,5.10
2022-08-14T12:25:10.932Z,4.78
2022-08-14T12:27:53.514Z,4.82
2022-08-14T12:30:35.878Z,5.28
2022-08-14T12:33:08.100Z,4.90
2022-08-14T12:35:43.142Z,5.15
2022-08-14T12:38:17.252Z,5.15
2022-08-14T12:40:52.300Z,5.53
2022-08-14T12:45:56.960Z,5.43
2022-08-14T12:48:32.357Z,5.40
2022-08-14T12:50:59.401Z,5.53
2022-08-14T12:53:36.361Z,5.15
2022-08-14T12:56:22.184Z,4.80
2022-08-14T12:58:56.960Z,5.30
2022-08-14T13:01:28.689Z,5.28
2022-08-14T13:04:15.136Z,4.85
2022-08-14T13:06:51.177Z,5.32
2022-08-14T13:09:18.965Z,5.60
2022-08-14T13:11:47.082Z,5.50
2022-08-14T13:14:29.573Z,5.38
2022-08-14T13:16:58.631Z,6.15
2022-08-14T13:19:28.135Z,5.20
2022-08-14T13:22:04.793Z,5.18
2022-08-14T13:24:33.688Z,5.38
2022-08-14T13:27:04.238Z,5.43
2022-08-14T13:29:33.705Z,5.55
2022-08-14T13:32:00.896Z,5.70
2022-08-14T13:34:29.122Z,5.70
2022-08-14T13:37:04.141Z,5.53
2022-08-14T13:39:36.103Z,5.50
2022-08-14T13:42:08.390Z,5.85
2022-08-14T13:44:38.387Z,5.57
2022-08-14T13:47:09.510Z,5.43
2022-08-14T13:49:37.870Z,5.63
2022-08-14T13:52:48.111Z,5.63
2022-08-14T13:54:59.425Z,5.22
2022-08-14T13:57:30.330Z,5.32
2022-08-14T14:00:01.458Z,5.30
2022-08-14T14:02:33.733Z,5.20
2022-08-14T14:05:01.749Z,5.32
2022-08-14T14:07:31.957Z,5.25
2022-08-14T14:10:06.194Z,5.90
2022-08-14T14:12:49.213Z,5.47
2022-08-14T14:15:28.505Z,5.88
2022-08-14T14:18:00.688Z,5.70
2022-08-14T14:20:35.273Z,5.88
2022-08-14T14:23:09.594Z,6.30
2022-08-14T14:25:48.023Z,5.97
2022-08-14T14:28:24.113Z,6.32
2022-08-14T14:30:54.522Z,6.22
2022-08-14T14:33:45.208Z,6.40
2022-08-14T14:36:14.034Z,6.28
2022-08-14T14:38:44.256Z,5.90
2022-08-14T14:41:14.317Z,6.40
2022-08-14T14:43:45.005Z,6.45
2022-08-14T14:46:13.182Z,5.88
2022-08-14T14:48:46.666Z,6.28
2022-08-14T14:51:21.999Z,6.80
2022-08-14T14:53:49.354Z,6.45
2022-08-14T14:56:50.427Z,6.22
2022-08-14T14:59:02.555Z,6.38
2022-08-14T15:01:32.853Z,6.72
2022-08-14T15:04:01.067Z,6.90
2022-08-14T15:06:34.518Z,6.55
2022-08-14T15:09:01.900Z,6.47
2022-08-14T15:11:32.279Z,6.47
2022-08-14T15:14:00.101Z,6.95
2022-08-14T15:16:27.753Z,6.82
2022-08-14T15:18:54.377Z,6.85
2022-08-14T15:21:21.535Z,6.72
2022-08-14T15:23:50.600Z,6.50
2022-08-14T15:26:24.230Z,6.30
2022-08-14T15:29:02.801Z,6.60
2022-08-14T15:31:31.538Z,7.10
2022-08-14T15:34:45.654Z,6.70
2022-08-14T15:37:03.378Z,6.85
2022-08-14T15:39:35.366Z,7.00
2022-08-14T15:42:02.644Z,6.75
2022-08-14T15:44:34.299Z,6.22
2022-08-14T15:47:06.934Z,6.63
2022-08-14T15:49:34.833Z,7.10
2022-08-14T15:52:03.166Z,6.85
2022-08-14T15:54:31.612Z,6.28
2022-08-14T15:57:02.588Z,6.60
2022-08-14T15:59:49.665Z,6.93
2022-08-14T16:02:27.611Z,6.32
2022-08-14T16:04:55.173Z,6.07
2022-08-14T16:07:22.267Z,6.80
2022-08-14T16:10:06.105Z,6.78
2022-08-14T16:12:41.640Z,6.72
2022-08-14T16:15:13.623Z,6.47
2022-08-14T16:17:43.965Z,6.75
2022-08-14T16:20:11.336Z,6.35
2022-08-14T16:22:57.437Z,5.88
2022-08-14T16:25:34.736Z,6.82
2022-08-14T16:28:03.538Z,6.43
2022-08-14T16:30:34.320Z,6.53
2022-08-14T16:33:04.819Z,6.22
2022-08-14T16:35:42.593Z,6.20
2022-08-14T16:38:46.338Z,6.47
2022-08-14T16:41:22.917Z,5.80
2022-08-14T16:43:52.124Z,6.43
2022-08-14T16:46:22.302Z,6.80
2022-08-14T16:48:55.698Z,6.63
2022-08-14T16:51:24.973Z,6.50
2022-08-14T16:53:51.640Z,6.60
2022-08-14T16:56:23.645Z,5.97
2022-08-14T16:59:07.058Z,5.93
2022-08-14T17:01:36.327Z,6.07
2022-08-14T17:04:09.820Z,6.40
2022-08-14T17:06:54.873Z,6.40
2022-08-14T17:09:50.474Z,6.68
2022-08-14T17:12:33.678Z,6.40
2022-08-14T17:15:15.030Z,6.28
2022-08-14T17:17:56.373Z,7.10
2022-08-14T17:23:12.214Z,6.32
2022-08-14T17:25:40.296Z,6.32
2022-08-14T17:28:52.099Z,6.63
2022-08-14T17:31:07.524Z,6.57
2022-08-14T17:33:40.859Z,6.28
2022-08-14T17:36:21.274Z,6.40
2022-08-14T17:39:06.435Z,6.65
2022-08-14T17:41:43.599Z,6.20
2022-08-14T17:44:44.881Z,6.65
2022-08-14T17:47:17.794Z,6.15
2022-08-14T17:49:52.316Z,6.28
2022-08-14T17:52:35.853Z,6.20
2022-08-14T17:55:12.475Z,6.32
2022-08-14T17:57:58.514Z,5.90
2022-08-14T18:00:25.639Z,5.80
2022-08-14T18:02:53.980Z,6.28
2022-08-14T18:05:23.774Z,5.63
2022-08-14T18:08:32.643Z,5.82
2022-08-14T18:10:56.653Z,5.70
2022-08-14T18:13:49.895Z,5.53
2022-08-14T18:16:20.390Z,5.40
2022-08-14T18:18:49.876Z,5.22
2022-08-14T18:21:39.603Z,5.32
2022-08-14T18:24:05.013Z,5.38
2022-08-14T18:26:54.668Z,5.30
2022-08-14T18:29:31.631Z,4.93
2022-08-14T18:31:59.117Z,5.40
2022-08-14T18:34:36.600Z,5.25
2022-08-14T18:37:17.695Z,5.07
2022-08-14T18:40:01.591Z,5.15
2022-08-14T18:42:34.655Z,4.88
2022-08-14T18:45:01.814Z,4.93
2022-08-14T18:48:03.429Z,5.25
2022-08-14T18:50:30.984Z,5.32
2022-08-14T18:53:07.310Z,4.68
2022-08-14T18:55:33.994Z,5.05
2022-08-14T18:58:00.882Z,4.90
2022-08-14T19:00:33.491Z,4.78
2022-08-14T19:03:04.256Z,4.75
2022-08-14T19:05:47.573Z,4.80
2022-08-14T19:08:18.116Z,4.70
2022-08-14T19:10:49.288Z,5.25
2022-08-14T19:13:47.998Z,5.20
2022-08-14T19:16:23.298Z,4.90
2022-08-14T19:19:01.744Z,5.10
2022-08-14T19:21:38.495Z,4.50
2022-08-14T19:24:29.198Z,4.72
2022-08-14T19:27:16.766Z,4.93
2022-08-14T19:29:47.850Z,4.65
2022-08-14T19:32:39.403Z,4.47
2022-08-14T19:35:19.298Z,4.57
2022-08-14T19:37:52.523Z,4.75
2022-08-14T19:40:38.472Z,4.60
2022-08-14T19:43:08.896Z,4.43
2022-08-14T19:45:37.530Z,4.43
2022-08-14T19:48:11.419Z,4.50
2022-08-14T19:50:41.390Z,4.32
2022-08-14T19:53:17.427Z,4.28
2022-08-14T19:55:56.941Z,4.75
2022-08-14T19:58:55.426Z,4.22
2022-08-14T20:01:26.129Z,4.50
2022-08-14T20:04:05.861Z,4.30
2022-08-14T20:06:43.311Z,4.35
2022-08-14T20:11:03.427Z,4.03
2022-08-14T20:12:04.935Z,4.20
2022-08-14T20:14:36.138Z,4.20
2022-08-14T20:17:06.710Z,4.55
2022-08-14T20:19:37.637Z,4.35
2022-08-14T20:22:36.629Z,4.38
2022-08-14T20:24:53.946Z,4.70
2022-08-14T20:27:33.732Z,4.70
2022-08-14T20:30:29.116Z,4.63
2022-08-14T20:33:02.500Z,4.22
2022-08-14T20:35:49.457Z,4.95
2022-08-14T20:38:31.578Z,4.50
2022-08-14T20:43:58.470Z,4.47
2022-08-14T20:46:33.727Z,4.75
2022-08-14T20:49:08.675Z,4.20
2022-08-14T20:51:47.365Z,4.88
2022-08-14T20:54:34.505Z,4.88
2022-08-14T20:57:15.734Z,4.85
2022-08-14T20:59:48.773Z,5.05
2022-08-14T21:02:34.209Z,4.90
2022-08-14T21:05:16.103Z,4.65
2022-08-14T21:07:44.525Z,4.35
2022-08-14T21:10:35.374Z,4.57
2022-08-14T21:13:27.220Z,4.65
2022-08-14T21:15:58.136Z,4.30
2022-08-14T21:18:31.770Z,4.78
2022-08-14T21:21:01.027Z,4.80
2022-08-14T21:23:35.760Z,4.78
2022-08-14T21:26:51.268Z,5.28
2022-08-14T21:29:11.301Z,4.80
2022-08-14T21:31:38.615Z,4.50
2022-08-14T21:34:05.589Z,4.18
2022-08-14T21:36:52.961Z,4.75
2022-08-14T21:39:19.611Z,4.25
2022-08-14T21:41:52.530Z,4.18
2022-08-14T21:44:42.589Z,4.60
2022-08-14T21:47:11.779Z,4.55
2022-08-14T21:49:40.191Z,4.70
2022-08-14T21:52:51.764Z,4.28
2022-08-14T21:55:08.906Z,4.60
2022-08-14T21:58:45.909Z,4.25
2022-08-14T22:00:34.560Z,4.13
2022-08-14T22:03:06.465Z,4.40
2022-08-14T22:05:39.314Z,4.07
2022-08-14T22:08:06.834Z,4.35
2022-08-14T22:10:35.042Z,4.28
2022-08-14T22:13:02.139Z,4.03
2022-08-14T22:15:30.480Z,4.47
2022-08-14T22:17:58.403Z,4.10
2022-08-14T22:20:28.617Z,4.00
2022-08-14T22:22:56.760Z,3.72
2022-08-14T22:25:33.770Z,4.13
2022-08-14T22:28:05.672Z,4.07
2022-08-14T22:30:33.349Z,3.85
2022-08-14T22:33:00.502Z,4.25
2022-08-14T22:35:28.299Z,3.92
2022-08-14T22:38:36.384Z,4.00
2022-08-14T22:41:01.756Z,3.90
2022-08-14T22:43:31.992Z,3.92
2022-08-14T22:46:02.330Z,4.93
2022-08-14T22:48:29.388Z,4.53
2022-08-14T22:50:56.138Z,4.10
2022-08-14T22:53:24.137Z,4.15
2022-08-14T22:55:56.753Z,3.92
2022-08-14T22:58:30.662Z,4.30
2022-08-14T23:01:01.609Z,3.90
2022-08-14T23:03:28.753Z,3.97
2022-08-14T23:05:55.704Z,3.85
2022-08-14T23:08:57.706Z,4.22
2022-08-14T23:11:11.441Z,4.10
2022-08-14T23:13:40.057Z,4.00
2022-08-14T23:16:10.103Z,4.35
2022-08-14T23:18:47.087Z,4.03
2022-08-14T23:21:24.544Z,4.03
2022-08-14T23:23:54.847Z,3.83
2022-08-14T23:26:49.571Z,3.97
2022-08-14T23:29:11.415Z,3.85
2022-08-14T23:31:38.439Z,4.50
2022-08-14T23:34:08.951Z,4.05
2022-08-14T23:36:53.350Z,4.20
2022-08-14T23:39:24.497Z,3.80
2022-08-14T23:41:56.416Z,4.10
2022-08-14T23:44:23.920Z,4.07
2022-08-14T23:46:56.932Z,4.30
2022-08-14T23:49:28.713Z,3.75
2022-08-14T23:52:51.309Z,3.95
2022-08-14T23:55:01.928Z,4.47
2022-08-14T23:57:30.668Z,4.25
2022-08-14T23:59:57.465Z,4.35
